Time;durP1;ratioP1;P1;durP2;ratioP2;P2;SDS_P1;SDS_P2;PMS_P1;PMS_P2;Temp;Humidity;BMP_temperature;BMP_pressure;BME280_temperature;BME280_humidity;BME280_pressure;Samples;Min_cycle;Max_cycle;Signal;HPM_P1;HPM_P2
2023/12/22 00:00:07;;;;;;;0.63;0.63;;;;;6.40;94758.00;;;;5073266;28;20201;-62
2023/12/22 00:02:35;;;;;;;1.20;1.20;;;;;6.40;94747.00;;;;5073156;28;20232;-62
2023/12/22 00:05:04;;;;;;;1.03;0.90;;;;;6.40;94721.00;;;;5073350;28;20206;-62
2023/12/22 00:07:31;;;;;;;0.60;0.60;;;;;6.30;94742.00;;;;5073290;28;20203;-62
2023/12/22 00:09:58;;;;;;;1.20;1.03;;;;;6.30;94711.00;;;;5073242;28;20198;-62
2023/12/22 00:12:26;;;;;;;0.90;0.90;;;;;6.40;94734.00;;;;5073184;28;20207;-62
2023/12/22 00:14:53;;;;;;;0.60;0.60;;;;;6.40;94784.00;;;;5073199;28;20688;-62
2023/12/22 00:17:20;;;;;;;3.30;1.07;;;;;6.30;94750.00;;;;5073199;28;20188;-62
2023/12/22 00:19:48;;;;;;;0.70;0.70;;;;;6.30;94719.00;;;;5073314;28;20202;-62
2023/12/22 00:22:17;;;;;;;0.77;0.77;;;;;6.30;94734.00;;;;5076038;28;20244;-62
2023/12/22 00:24:44;;;;;;;1.03;1.03;;;;;6.30;94765.00;;;;5080099;28;20193;-62
2023/12/22 00:27:11;;;;;;;0.70;0.70;;;;;6.30;94739.00;;;;5080255;28;20183;-62
2023/12/22 00:29:39;;;;;;;1.17;1.17;;;;;6.30;94757.00;;;;5080403;28;20191;-62
2023/12/22 00:32:09;;;;;;;1.00;0.97;;;;;6.30;94754.00;;;;5080182;28;20207;-62
2023/12/22 00:34:37;;;;;;;0.80;0.80;;;;;6.40;94766.00;;;;5079867;28;20193;-62
2023/12/22 00:37:05;;;;;;;8.40;0.80;;;;;6.30;94784.00;;;;5080221;28;20657;-62
2023/12/22 00:39:34;;;;;;;1.00;1.00;;;;;6.30;94757.00;;;;5079522;28;20195;-62
2023/12/22 00:42:01;;;;;;;0.60;0.60;;;;;6.30;94780.00;;;;5079557;28;20221;-62
2023/12/22 00:44:29;;;;;;;0.57;0.57;;;;;6.40;94793.00;;;;5078702;28;20204;-62
2023/12/22 00:46:56;;;;;;;0.80;0.80;;;;;6.30;94781.00;;;;5079901;28;20191;-62
2023/12/22 00:49:24;;;;;;;0.60;0.60;;;;;6.40;94771.00;;;;5079865;28;20662;-62
2023/12/22 00:51:51;;;;;;;1.17;1.17;;;;;6.40;94793.00;;;;5079757;28;20215;-62
2023/12/22 00:54:18;;;;;;;0.90;0.90;;;;;6.40;94762.00;;;;5079630;28;20209;-62
2023/12/22 00:56:47;;;;;;;2.87;1.07;;;;;6.30;94750.00;;;;5078253;28;20195;-62
2023/12/22 00:59:15;;;;;;;0.80;0.80;;;;;6.30;94749.00;;;;5079437;28;20195;-62
2023/12/22 01:01:43;;;;;;;1.27;1.23;;;;;6.20;94768.00;;;;5079413;28;20226;-62
2023/12/22 01:04:10;;;;;;;0.60;0.60;;;;;6.20;94729.00;;;;5078414;28;20199;-62
2023/12/22 01:06:39;;;;;;;0.40;0.40;;;;;6.10;94768.00;;;;5079945;28;20197;-62
2023/12/22 01:09:06;;;;;;;0.60;0.60;;;;;6.10;94755.00;;;;5079484;28;20659;-62
2023/12/22 01:11:34;;;;;;;0.60;0.60;;;;;6.00;94759.00;;;;5079540;28;20217;-62
2023/12/22 01:14:02;;;;;;;0.50;0.50;;;;;6.00;94736.00;;;;5079780;28;20198;-62
2023/12/22 01:16:30;;;;;;;0.70;0.70;;;;;6.00;94743.00;;;;5079557;28;20667;-62
2023/12/22 01:18:57;;;;;;;0.80;0.80;;;;;6.10;94769.00;;;;5079408;28;20200;-62
2023/12/22 01:21:25;;;;;;;0.60;0.60;;;;;6.00;94760.00;;;;5079473;28;20214;-62
2023/12/22 01:23:52;;;;;;;0.70;0.70;;;;;5.90;94759.00;;;;5079618;28;20550;-62
2023/12/22 01:26:19;;;;;;;0.60;0.60;;;;;5.80;94774.00;;;;5079644;28;20196;-62
2023/12/22 01:28:47;;;;;;;0.60;0.60;;;;;5.80;94769.00;;;;5079264;28;20192;-63
2023/12/22 01:31:15;;;;;;;0.50;0.50;;;;;5.80;94758.00;;;;5079060;28;20184;-63
2023/12/22 01:33:43;;;;;;;0.60;0.60;;;;;5.70;94751.00;;;;5077404;28;20200;-63
2023/12/22 01:36:10;;;;;;;0.50;0.50;;;;;5.80;94768.00;;;;5076111;28;20190;-63
2023/12/22 01:38:38;;;;;;;0.60;0.60;;;;;5.80;94783.00;;;;5076605;28;20187;-63
2023/12/22 01:41:05;;;;;;;0.50;0.50;;;;;5.90;94782.00;;;;5076130;28;20586;-63
2023/12/22 01:43:32;;;;;;;0.60;0.60;;;;;5.90;94820.00;;;;5076703;28;20214;-63
2023/12/22 01:46:02;;;;;;;0.53;0.53;;;;;5.90;94791.00;;;;5075871;28;20191;-63
2023/12/22 01:48:31;;;;;;;0.50;0.50;;;;;6.00;94816.00;;;;5076889;28;20204;-62
2023/12/22 01:51:01;;;;;;;0.60;0.60;;;;;6.00;94839.00;;;;5076249;28;20200;-62
2023/12/22 01:53:29;;;;;;;1.40;1.00;;;;;6.00;94827.00;;;;5075700;28;20218;-63
2023/12/22 01:55:56;;;;;;;0.60;0.60;;;;;6.00;94838.00;;;;5075822;28;20195;-63
2023/12/22 01:58:25;;;;;;;0.60;0.60;;;;;6.00;94830.00;;;;5075638;28;20198;-62
2023/12/22 02:00:54;;;;;;;1.10;1.03;;;;;6.00;94840.00;;;;5075532;28;20192;-62
2023/12/22 02:03:23;;;;;;;1.53;1.00;;;;;5.90;94834.00;;;;5075497;28;20705;-63
2023/12/22 02:05:52;;;;;;;0.70;0.70;;;;;5.90;94820.00;;;;5075694;28;20282;-64
2023/12/22 02:08:21;;;;;;;0.63;0.63;;;;;6.00;94826.00;;;;5074330;28;20565;-62
2023/12/22 02:10:48;;;;;;;1.20;1.17;;;;;5.90;94800.00;;;;5075410;28;20219;-62
2023/12/22 02:13:16;;;;;;;0.83;0.70;;;;;5.90;94818.00;;;;5075503;28;20687;-62
2023/12/22 02:15:44;;;;;;;0.50;0.50;;;;;5.90;94809.00;;;;5075200;28;20202;-62
2023/12/22 02:18:15;;;;;;;0.83;0.80;;;;;6.00;94818.00;;;;5075229;28;20661;-62
2023/12/22 02:20:44;;;;;;;0.50;0.50;;;;;6.00;94798.00;;;;5075423;28;20195;-62
2023/12/22 02:23:12;;;;;;;1.23;0.90;;;;;6.00;94816.00;;;;5073754;28;20230;-62
2023/12/22 02:25:40;;;;;;;0.70;0.70;;;;;5.90;94815.00;;;;5075059;28;20195;-62
2023/12/22 02:28:15;;;;;;;1.70;0.80;;;;;6.00;94794.00;;;;5075309;28;20192;-62
2023/12/22 02:30:53;;;;;;;0.60;0.60;;;;;6.10;94829.00;;;;5074963;28;20176;-62
2023/12/22 02:33:23;;;;;;;0.60;0.60;;;;;6.10;94812.00;;;;5075162;28;20678;-62
2023/12/22 02:35:52;;;;;;;0.60;0.60;;;;;6.10;94815.00;;;;5074985;28;20194;-62
2023/12/22 02:38:22;;;;;;;0.57;0.57;;;;;6.10;94813.00;;;;5075107;28;20209;-62
2023/12/22 02:40:50;;;;;;;0.80;0.80;;;;;6.10;94864.00;;;;5074888;28;20191;-62
2023/12/22 02:43:17;;;;;;;0.50;0.50;;;;;6.20;94804.00;;;;5073438;28;20625;-62
2023/12/22 02:45:44;;;;;;;0.60;0.60;;;;;6.10;94859.00;;;;5074605;28;20550;-62
2023/12/22 02:48:12;;;;;;;0.87;0.87;;;;;6.10;94813.00;;;;5074556;28;20195;-62
2023/12/22 02:50:39;;;;;;;1.50;0.97;;;;;6.10;94902.00;;;;5074655;28;20195;-63
2023/12/22 02:53:07;;;;;;;1.60;1.23;;;;;6.10;94800.00;;;;5074826;28;20537;-63
2023/12/22 02:55:35;;;;;;;0.50;0.50;;;;;6.10;94831.00;;;;5074342;28;20195;-62
2023/12/22 02:58:03;;;;;;;1.03;1.03;;;;;6.10;94821.00;;;;5074459;28;20195;-64
2023/12/22 03:00:30;;;;;;;1.40;0.80;;;;;6.10;94808.00;;;;5074434;28;20191;-63
2023/12/22 03:02:57;;;;;;;0.70;0.70;;;;;6.10;94837.00;;;;5074201;28;20219;-62
2023/12/22 03:05:25;;;;;;;1.07;1.07;;;;;6.10;94828.00;;;;5074239;28;20663;-63
2023/12/22 03:07:52;;;;;;;0.63;0.63;;;;;6.00;94834.00;;;;5074202;28;20632;-62
2023/12/22 03:10:19;;;;;;;0.60;0.60;;;;;6.00;94819.00;;;;5074140;28;20191;-64
2023/12/22 03:12:48;;;;;;;0.73;0.73;;;;;5.90;94824.00;;;;5074313;28;20219;-63
2023/12/22 03:15:15;;;;;;;1.27;1.27;;;;;6.00;94842.00;;;;5074077;28;20195;-63
2023/12/22 03:17:43;;;;;;;0.77;0.77;;;;;6.00;94823.00;;;;5073924;28;20269;-63
2023/12/22 03:20:11;;;;;;;1.40;0.70;;;;;5.90;94857.00;;;;5074226;28;20655;-62
2023/12/22 03:22:38;;;;;;;0.63;0.63;;;;;6.00;94821.00;;;;5073806;28;20264;-62
2023/12/22 03:25:06;;;;;;;0.77;0.77;;;;;6.10;94816.00;;;;5074317;28;20571;-62
2023/12/22 03:27:33;;;;;;;3.23;1.27;;;;;6.00;94821.00;;;;5073752;28;20195;-62
2023/12/22 03:30:03;;;;;;;1.27;0.93;;;;;6.00;94835.00;;;;5073855;28;20663;-63
2023/12/22 03:32:30;;;;;;;1.07;1.00;;;;;6.00;94862.00;;;;5074171;28;20783;-63
2023/12/22 03:34:58;;;;;;;1.30;1.20;;;;;6.00;94824.00;;;;5073639;28;20225;-62
2023/12/22 03:37:25;;;;;;;0.77;0.77;;;;;6.10;94833.00;;;;5073765;28;20193;-62
2023/12/22 03:39:54;;;;;;;0.60;0.60;;;;;6.10;94844.00;;;;5073585;28;20196;-62
2023/12/22 03:42:22;;;;;;;0.60;0.60;;;;;6.10;94829.00;;;;5073489;28;20226;-62
2023/12/22 03:44:49;;;;;;;0.70;0.70;;;;;6.10;94883.00;;;;5073856;28;20539;-62
2023/12/22 03:47:18;;;;;;;0.63;0.63;;;;;6.10;94852.00;;;;5074148;28;20193;-62
2023/12/22 03:49:45;;;;;;;0.70;0.70;;;;;6.10;94825.00;;;;5073814;28;20191;-62
2023/12/22 03:52:14;;;;;;;0.77;0.77;;;;;6.10;94825.00;;;;5073471;28;20207;-62
2023/12/22 03:54:41;;;;;;;0.70;0.70;;;;;6.20;94844.00;;;;5074318;28;20194;-62
2023/12/22 03:57:09;;;;;;;1.50;0.60;;;;;6.10;94806.00;;;;5073253;28;20192;-62
2023/12/22 03:59:36;;;;;;;0.70;0.70;;;;;6.10;94831.00;;;;5073381;28;20191;-62
2023/12/22 04:02:03;;;;;;;0.70;0.70;;;;;6.10;94858.00;;;;5073380;28;20219;-62
2023/12/22 04:04:32;;;;;;;1.60;1.00;;;;;6.20;94806.00;;;;5073415;28;20269;-62
2023/12/22 04:06:59;;;;;;;0.70;0.70;;;;;6.20;94829.00;;;;5074049;28;20191;-62
2023/12/22 04:09:27;;;;;;;0.90;0.90;;;;;6.20;94885.00;;;;5074039;28;20203;-62
2023/12/22 04:11:54;;;;;;;0.70;0.70;;;;;6.30;94826.00;;;;5073386;28;20310;-62
2023/12/22 04:14:22;;;;;;;4.97;0.97;;;;;6.20;94827.00;;;;5073599;28;20202;-62
2023/12/22 04:16:50;;;;;;;1.40;0.83;;;;;6.20;94846.00;;;;5073183;28;20191;-63
2023/12/22 04:19:17;;;;;;;2.83;1.27;;;;;6.20;94839.00;;;;5074151;28;20196;-63
2023/12/22 04:21:46;;;;;;;0.80;0.80;;;;;6.00;94868.00;;;;5072956;28;20229;-63
2023/12/22 04:24:14;;;;;;;0.60;0.60;;;;;5.70;94822.00;;;;5073326;28;20191;-62
2023/12/22 04:26:41;;;;;;;0.70;0.70;;;;;5.60;94836.00;;;;5073592;28;20287;-62
2023/12/22 04:29:08;;;;;;;0.50;0.50;;;;;5.50;94865.00;;;;5073098;28;20193;-63
2023/12/22 04:31:36;;;;;;;0.80;0.80;;;;;5.30;94836.00;;;;5073294;28;20567;-62
2023/12/22 04:34:03;;;;;;;0.60;0.60;;;;;5.30;94870.00;;;;5073077;28;20188;-62
2023/12/22 04:36:31;;;;;;;0.93;0.93;;;;;5.40;94835.00;;;;5073207;28;20186;-62
2023/12/22 04:38:59;;;;;;;0.70;0.70;;;;;5.40;94853.00;;;;5073119;28;20203;-62
2023/12/22 04:41:27;;;;;;;0.60;0.60;;;;;5.40;94861.00;;;;5072868;28;20196;-62
2023/12/22 04:43:54;;;;;;;1.33;1.20;;;;;5.50;94863.00;;;;5072906;28;20251;-62
2023/12/22 04:46:22;;;;;;;1.03;1.03;;;;;5.50;94819.00;;;;5072905;28;20266;-62
2023/12/22 04:48:49;;;;;;;0.67;0.67;;;;;5.50;94852.00;;;;5072913;28;20226;-62
2023/12/22 04:51:16;;;;;;;0.77;0.77;;;;;5.50;94844.00;;;;5072852;28;20197;-62
2023/12/22 04:53:44;;;;;;;8.20;0.80;;;;;5.50;94860.00;;;;5073354;28;20189;-63
2023/12/22 04:56:13;;;;;;;1.60;1.57;;;;;5.40;94862.00;;;;5073090;28;20652;-62
2023/12/22 04:58:40;;;;;;;1.47;1.07;;;;;5.50;94880.00;;;;5073187;28;20195;-63
2023/12/22 05:01:07;;;;;;;0.60;0.60;;;;;5.50;94853.00;;;;5072914;28;20187;-62
2023/12/22 05:03:35;;;;;;;0.97;0.90;;;;;5.40;94870.00;;;;5072588;28;20710;-62
2023/12/22 05:06:02;;;;;;;0.60;0.60;;;;;5.40;94886.00;;;;5072835;28;20191;-63
2023/12/22 05:08:30;;;;;;;0.70;0.70;;;;;5.60;94902.00;;;;5072827;28;20265;-63
2023/12/22 05:10:57;;;;;;;0.60;0.60;;;;;5.70;94866.00;;;;5076792;28;20688;-63
2023/12/22 05:13:26;;;;;;;5.70;1.60;;;;;5.70;94863.00;;;;5076299;28;20284;-61
2023/12/22 05:15:54;;;;;;;1.07;1.07;;;;;5.60;94867.00;;;;5076679;28;20221;-62
2023/12/22 05:18:22;;;;;;;0.60;0.60;;;;;5.60;94863.00;;;;5076647;28;20209;-62
2023/12/22 05:20:49;;;;;;;0.80;0.80;;;;;5.70;94869.00;;;;5076581;28;20202;-62
2023/12/22 05:23:17;;;;;;;2.97;0.93;;;;;5.70;94874.00;;;;5076289;28;20227;-62
2023/12/22 05:25:44;;;;;;;2.30;1.80;;;;;5.80;94883.00;;;;5076662;28;20552;-62
2023/12/22 05:28:12;;;;;;;0.70;0.70;;;;;5.80;94860.00;;;;5076667;28;20618;-62
2023/12/22 05:30:40;;;;;;;1.83;1.67;;;;;5.90;94906.00;;;;5076160;28;20191;-62
2023/12/22 05:33:08;;;;;;;0.93;0.90;;;;;5.90;94881.00;;;;5076239;28;20570;-62
2023/12/22 05:35:38;;;;;;;1.23;1.03;;;;;5.90;94871.00;;;;5076059;28;20200;-62
2023/12/22 05:38:05;;;;;;;1.77;1.67;;;;;6.00;94900.00;;;;5076301;28;20604;-62
2023/12/22 05:40:33;;;;;;;0.90;0.90;;;;;6.00;94910.00;;;;5076441;28;20262;-62
2023/12/22 05:43:04;;;;;;;0.60;0.60;;;;;6.00;94918.00;;;;5075905;28;20218;-62
2023/12/22 05:45:31;;;;;;;1.50;1.40;;;;;6.00;94897.00;;;;5076229;28;20176;-62
2023/12/22 05:48:00;;;;;;;7.07;1.80;;;;;6.00;94909.00;;;;5075772;28;20716;-62
2023/12/22 05:50:26;;;;;;;0.60;0.60;;;;;6.00;94971.00;;;;5075917;28;20195;-62
2023/12/22 05:52:54;;;;;;;0.87;0.87;;;;;6.20;94907.00;;;;5075870;28;20210;-62
2023/12/22 05:55:21;;;;;;;0.90;0.90;;;;;6.10;94940.00;;;;5075780;28;20195;-62
2023/12/22 05:57:48;;;;;;;13.30;1.40;;;;;6.10;94926.00;;;;5075708;28;20295;-62
2023/12/22 06:00:17;;;;;;;0.80;0.80;;;;;6.10;94897.00;;;;5075895;28;20191;-62
2023/12/22 06:02:44;;;;;;;1.07;0.80;;;;;6.10;94916.00;;;;5075962;28;20281;-62
2023/12/22 06:05:13;;;;;;;0.83;0.83;;;;;6.10;94917.00;;;;5075722;28;20193;-62
2023/12/22 06:07:41;;;;;;;1.37;1.27;;;;;6.10;94912.00;;;;5075606;28;20278;-62
2023/12/22 06:10:09;;;;;;;1.83;0.93;;;;;6.10;94907.00;;;;5075470;28;20280;-62
2023/12/22 06:12:37;;;;;;;1.10;1.10;;;;;6.10;94950.00;;;;5075434;28;20357;-63
2023/12/22 06:15:05;;;;;;;6.60;0.97;;;;;6.00;94950.00;;;;5075449;28;20670;-62
2023/12/22 06:17:34;;;;;;;3.70;1.00;;;;;6.00;94935.00;;;;5075239;28;20214;-62
2023/12/22 06:20:02;;;;;;;0.57;0.57;;;;;6.00;94948.00;;;;5074911;28;20194;-62
2023/12/22 06:22:30;;;;;;;0.90;0.90;;;;;5.90;94938.00;;;;5074979;28;20223;-63
2023/12/22 06:24:58;;;;;;;0.90;0.90;;;;;5.90;94949.00;;;;5075285;28;20252;-62
2023/12/22 06:27:25;;;;;;;1.10;1.00;;;;;5.70;94949.00;;;;5075326;28;20195;-63
2023/12/22 06:29:52;;;;;;;1.03;1.03;;;;;5.70;94959.00;;;;5075160;28;20662;-62
2023/12/22 06:32:20;;;;;;;3.20;1.53;;;;;5.70;94949.00;;;;5075002;28;20272;-63
2023/12/22 06:34:47;;;;;;;0.93;0.93;;;;;5.70;95045.00;;;;5075277;28;20647;-63
2023/12/22 06:37:14;;;;;;;1.30;1.30;;;;;5.60;95006.00;;;;5075374;28;20200;-63
2023/12/22 06:39:43;;;;;;;0.60;0.60;;;;;5.70;94963.00;;;;5074912;28;20639;-63
2023/12/22 06:42:12;;;;;;;7.33;1.00;;;;;5.70;94980.00;;;;5074683;28;20721;-62
2023/12/22 06:44:42;;;;;;;1.07;1.07;;;;;5.70;94961.00;;;;5074734;28;20212;-62
2023/12/22 06:47:09;;;;;;;1.13;1.10;;;;;5.70;94955.00;;;;5074730;28;20554;-62
2023/12/22 06:49:36;;;;;;;12.73;1.13;;;;;5.70;94939.00;;;;5074857;28;20187;-62
2023/12/22 06:52:04;;;;;;;0.70;0.70;;;;;5.70;94933.00;;;;5074543;28;20210;-62
2023/12/22 06:54:32;;;;;;;0.80;0.80;;;;;5.70;94919.00;;;;5074654;28;20540;-62
2023/12/22 06:57:01;;;;;;;0.80;0.80;;;;;5.60;94930.00;;;;5074470;28;20198;-63
2023/12/22 06:59:28;;;;;;;0.83;0.83;;;;;5.60;94953.00;;;;5074826;28;20195;-62
2023/12/22 07:01:56;;;;;;;0.70;0.70;;;;;5.60;94948.00;;;;5074742;28;20215;-62
2023/12/22 07:04:41;;;;;;;0.83;0.83;;;;;5.50;94966.00;;;;5074723;28;20249;-62
2023/12/22 07:07:09;;;;;;;0.70;0.70;;;;;5.50;94974.00;;;;5074799;28;20180;-62
2023/12/22 07:09:36;;;;;;;0.97;0.97;;;;;5.60;94947.00;;;;5074691;28;20195;-63
2023/12/22 07:12:05;;;;;;;0.90;0.90;;;;;5.60;94960.00;;;;5074371;28;20207;-63
2023/12/22 07:14:33;;;;;;;0.60;0.60;;;;;5.70;94973.00;;;;5074544;28;20230;-63
2023/12/22 07:17:01;;;;;;;0.73;0.73;;;;;5.70;94980.00;;;;5074659;28;20187;-63
2023/12/22 07:19:28;;;;;;;1.70;1.33;;;;;5.60;94974.00;;;;5074221;28;20750;-63
2023/12/22 07:21:55;;;;;;;0.90;0.90;;;;;5.70;94979.00;;;;5074373;28;20215;-63
2023/12/22 07:24:23;;;;;;;0.87;0.87;;;;;5.70;94969.00;;;;5073867;28;20211;-63
2023/12/22 07:26:50;;;;;;;0.70;0.70;;;;;5.70;94990.00;;;;5074416;28;20558;-63
2023/12/22 07:29:19;;;;;;;1.30;0.97;;;;;5.60;94977.00;;;;5074363;28;20191;-63
2023/12/22 07:31:46;;;;;;;0.50;0.50;;;;;5.60;94977.00;;;;5072973;28;20234;-63
2023/12/22 07:34:14;;;;;;;2.23;0.90;;;;;5.60;94991.00;;;;5073876;28;20192;-63
2023/12/22 07:36:42;;;;;;;0.67;0.67;;;;;5.60;94984.00;;;;5073786;28;20192;-63
2023/12/22 07:39:10;;;;;;;3.40;1.67;;;;;5.70;94992.00;;;;5074148;28;20218;-63
2023/12/22 07:41:39;;;;;;;0.60;0.60;;;;;5.70;94996.00;;;;5073796;28;20225;-63
2023/12/22 07:44:07;;;;;;;0.73;0.73;;;;;5.70;95009.00;;;;5073701;28;20676;-63
2023/12/22 07:46:38;;;;;;;0.50;0.50;;;;;5.70;94986.00;;;;5073510;28;20286;-63
2023/12/22 07:49:05;;;;;;;1.50;1.23;;;;;5.80;94990.00;;;;5073850;28;20188;-63
2023/12/22 07:51:33;;;;;;;3.07;1.03;;;;;5.80;94997.00;;;;5073473;28;20199;-63
2023/12/22 07:54:00;;;;;;;1.07;1.07;;;;;5.90;94983.00;;;;5073361;28;20606;-63
2023/12/22 07:56:28;;;;;;;1.37;1.37;;;;;5.90;95010.00;;;;5073306;28;20203;-63
2023/12/22 07:58:56;;;;;;;0.70;0.70;;;;;6.00;95016.00;;;;5073897;28;20207;-62
2023/12/22 08:01:23;;;;;;;0.90;0.90;;;;;6.00;94997.00;;;;5073586;28;20669;-63
2023/12/22 08:03:52;;;;;;;0.60;0.60;;;;;6.10;95034.00;;;;5073402;28;20264;-63
2023/12/22 08:06:20;;;;;;;0.87;0.87;;;;;6.10;95024.00;;;;5073419;28;20227;-62
2023/12/22 08:08:47;;;;;;;1.00;1.00;;;;;6.20;95037.00;;;;5073487;28;20199;-63
2023/12/22 08:11:14;;;;;;;1.00;1.00;;;;;6.20;95055.00;;;;5073435;28;20191;-63
2023/12/22 08:13:42;;;;;;;1.63;1.50;;;;;6.20;95054.00;;;;5073268;28;20190;-62
2023/12/22 08:16:10;;;;;;;0.60;0.60;;;;;6.20;95015.00;;;;5073102;28;20297;-62
2023/12/22 08:18:37;;;;;;;0.60;0.60;;;;;6.20;95018.00;;;;5073295;28;20204;-62
2023/12/22 08:21:06;;;;;;;1.40;0.93;;;;;6.20;95034.00;;;;5071757;28;20198;-62
2023/12/22 08:23:33;;;;;;;0.87;0.83;;;;;6.10;95042.00;;;;5072908;28;20563;-62
2023/12/22 08:26:01;;;;;;;4.97;2.67;;;;;6.00;95063.00;;;;5073152;28;20191;-62
2023/12/22 08:28:28;;;;;;;0.67;0.67;;;;;5.80;95011.00;;;;5073184;28;20189;-63
2023/12/22 08:30:55;;;;;;;0.60;0.60;;;;;5.80;95040.00;;;;5073120;28;20195;-62
2023/12/22 08:33:23;;;;;;;3.00;1.57;;;;;5.70;95055.00;;;;5072941;28;20204;-62
2023/12/22 08:35:50;;;;;;;0.60;0.60;;;;;5.70;95026.00;;;;5073453;28;20675;-62
2023/12/22 08:38:19;;;;;;;2.40;2.20;;;;;5.70;95049.00;;;;5072758;28;20198;-62
2023/12/22 08:40:46;;;;;;;0.73;0.73;;;;;5.70;95025.00;;;;5073171;28;20197;-62
2023/12/22 08:43:13;;;;;;;1.17;1.03;;;;;5.70;95000.00;;;;5074965;28;20222;-63
2023/12/22 08:45:41;;;;;;;0.70;0.70;;;;;5.80;95074.00;;;;5077632;28;20195;-64
2023/12/22 08:48:08;;;;;;;2.70;0.93;;;;;5.90;95041.00;;;;5077335;28;20244;-63
2023/12/22 08:50:39;;;;;;;0.77;0.77;;;;;5.80;95027.00;;;;5077281;28;20191;-62
2023/12/22 08:53:06;;;;;;;0.70;0.70;;;;;5.80;95051.00;;;;5076859;28;20210;-62
2023/12/22 08:55:35;;;;;;;2.43;2.00;;;;;5.80;95064.00;;;;5076852;28;20188;-62
2023/12/22 08:58:02;;;;;;;2.97;1.57;;;;;5.80;95068.00;;;;5075604;28;20202;-63
2023/12/22 09:00:30;;;;;;;3.53;1.37;;;;;5.70;95049.00;;;;5077313;28;20225;-63
2023/12/22 09:02:57;;;;;;;0.83;0.83;;;;;5.80;95033.00;;;;5077266;28;20221;-62
2023/12/22 09:05:25;;;;;;;1.00;1.00;;;;;5.80;95048.00;;;;5076475;28;20218;-62
2023/12/22 09:07:52;;;;;;;5.30;1.47;;;;;5.90;95041.00;;;;5076752;28;20670;-68
2023/12/22 09:10:20;;;;;;;0.73;0.73;;;;;5.90;95029.00;;;;5077147;28;20205;-62
2023/12/22 09:12:48;;;;;;;1.70;1.60;;;;;5.90;95052.00;;;;5076930;28;20209;-62
2023/12/22 09:15:16;;;;;;;1.03;0.90;;;;;5.90;95042.00;;;;5076596;28;20265;-63
2023/12/22 09:17:43;;;;;;;7.97;1.67;;;;;5.80;95059.00;;;;5076591;28;20262;-62
2023/12/22 09:20:12;;;;;;;5.20;1.00;;;;;5.80;95044.00;;;;5076849;28;20186;-62
2023/12/22 09:22:40;;;;;;;2.47;1.47;;;;;6.00;95037.00;;;;5076454;28;20687;-62
2023/12/22 09:25:08;;;;;;;4.93;1.33;;;;;6.00;95060.00;;;;5076614;28;20312;-62
2023/12/22 09:27:36;;;;;;;13.27;1.33;;;;;6.00;95081.00;;;;5076253;28;20597;-63
2023/12/22 09:30:06;;;;;;;0.70;0.70;;;;;6.10;95066.00;;;;5076258;28;20190;-62
2023/12/22 09:32:34;;;;;;;2.40;1.00;;;;;6.10;95052.00;;;;5076680;28;20336;-62
2023/12/22 09:35:02;;;;;;;1.27;1.20;;;;;6.10;95045.00;;;;5076350;28;20194;-62
2023/12/22 09:37:33;;;;;;;2.40;1.73;;;;;6.20;95104.00;;;;5075986;28;20253;-62
2023/12/22 09:40:01;;;;;;;1.37;1.37;;;;;6.20;95062.00;;;;5076321;28;20194;-62
2023/12/22 09:42:28;;;;;;;1.60;1.50;;;;;6.30;95045.00;;;;5076052;28;20273;-62
2023/12/22 09:45:02;;;;;;;4.03;1.40;;;;;6.20;95053.00;;;;5075954;28;20228;-62
2023/12/22 09:47:35;;;;;;;2.30;1.13;;;;;6.20;95070.00;;;;5076062;28;20239;-62
2023/12/22 09:50:03;;;;;;;0.60;0.60;;;;;6.30;95051.00;;;;5076766;28;20607;-62
2023/12/22 09:52:32;;;;;;;1.27;1.10;;;;;6.30;95067.00;;;;5076389;28;20215;-62
2023/12/22 09:55:00;;;;;;;2.00;1.73;;;;;6.30;95049.00;;;;5075411;28;20197;-62
2023/12/22 09:57:29;;;;;;;2.73;2.20;;;;;6.40;95067.00;;;;5076327;28;20655;-62
2023/12/22 09:59:58;;;;;;;1.03;1.03;;;;;6.30;95074.00;;;;5075657;28;20673;-62
2023/12/22 10:02:28;;;;;;;1.00;1.00;;;;;6.30;95074.00;;;;5074310;28;20224;-62
2023/12/22 10:04:57;;;;;;;1.23;1.07;;;;;6.40;95035.00;;;;5076342;28;20218;-62
2023/12/22 10:07:25;;;;;;;1.00;0.97;;;;;6.40;95037.00;;;;5075946;28;20194;-62
2023/12/22 10:09:55;;;;;;;3.03;2.40;;;;;6.50;95012.00;;;;5075751;28;20191;-62
2023/12/22 10:12:24;;;;;;;1.63;1.60;;;;;6.50;95059.00;;;;5075785;28;20280;-62
2023/12/22 10:14:52;;;;;;;1.50;0.93;;;;;6.50;95032.00;;;;5075596;28;20256;-62
2023/12/22 10:17:19;;;;;;;6.33;1.73;;;;;6.50;95051.00;;;;5075655;28;20199;-63
2023/12/22 10:19:47;;;;;;;0.80;0.80;;;;;6.50;95033.00;;;;5075519;28;20226;-63
2023/12/22 10:22:16;;;;;;;5.03;2.70;;;;;6.50;95057.00;;;;5075529;28;20293;-64
2023/12/22 10:24:47;;;;;;;0.60;0.60;;;;;6.50;95044.00;;;;5075309;28;20222;-63
2023/12/22 10:27:16;;;;;;;0.70;0.70;;;;;6.40;95026.00;;;;5074125;28;20557;-63
2023/12/22 10:29:43;;;;;;;4.93;1.47;;;;;6.50;95059.00;;;;5075456;28;20259;-64
2023/12/22 10:32:11;;;;;;;0.83;0.83;;;;;6.30;95057.00;;;;5075024;28;20214;-64
2023/12/22 10:34:38;;;;;;;1.00;1.00;;;;;6.40;95037.00;;;;5075117;28;20550;-63
2023/12/22 10:37:06;;;;;;;0.63;0.63;;;;;6.30;95061.00;;;;5075003;28;20202;-63
2023/12/22 10:39:36;;;;;;;8.27;0.90;;;;;6.20;95038.00;;;;5075218;28;20198;-63
2023/12/22 10:42:04;;;;;;;0.60;0.60;;;;;6.30;95040.00;;;;5074868;28;20218;-63
2023/12/22 10:44:32;;;;;;;0.70;0.70;;;;;6.30;95026.00;;;;5074959;28;20686;-63
2023/12/22 10:47:01;;;;;;;0.60;0.60;;;;;6.20;95043.00;;;;5075834;28;20213;-63
2023/12/22 10:49:28;;;;;;;0.70;0.70;;;;;6.20;95021.00;;;;5075532;28;20191;-63
2023/12/22 10:51:56;;;;;;;0.70;0.70;;;;;6.20;95018.00;;;;5075423;28;20211;-63
2023/12/22 10:54:23;;;;;;;1.17;1.07;;;;;6.20;95011.00;;;;5074956;28;20195;-63
2023/12/22 10:56:53;;;;;;;0.93;0.93;;;;;6.30;95016.00;;;;5075017;28;20678;-63
2023/12/22 10:59:23;;;;;;;0.60;0.60;;;;;6.20;95010.00;;;;5074650;28;20200;-63
2023/12/22 11:01:54;;;;;;;0.80;0.80;;;;;6.20;95004.00;;;;5074899;28;20294;-63
2023/12/22 11:04:23;;;;;;;0.50;0.50;;;;;6.30;95018.00;;;;5074699;28;20201;-63
2023/12/22 11:06:53;;;;;;;0.60;0.60;;;;;6.30;94997.00;;;;5074516;28;20199;-64
2023/12/22 11:09:24;;;;;;;0.50;0.50;;;;;6.20;95016.00;;;;5074265;28;20198;-64
2023/12/22 11:11:53;;;;;;;0.70;0.70;;;;;6.20;95019.00;;;;5074745;28;20569;-63
2023/12/22 11:14:22;;;;;;;0.80;0.80;;;;;6.30;95007.00;;;;5074294;28;20313;-62
2023/12/22 11:16:52;;;;;;;0.70;0.70;;;;;6.20;95015.00;;;;5074359;28;20196;-62
2023/12/22 11:19:20;;;;;;;0.90;0.90;;;;;6.20;94995.00;;;;5074381;28;20209;-63
2023/12/22 11:21:50;;;;;;;0.60;0.60;;;;;6.30;95003.00;;;;5074104;28;20268;-63
2023/12/22 11:24:19;;;;;;;0.97;0.97;;;;;6.20;95003.00;;;;5073956;28;20223;-63
2023/12/22 11:26:49;;;;;;;1.00;0.97;;;;;6.30;94987.00;;;;5073761;28;20245;-63
2023/12/22 11:29:19;;;;;;;1.03;1.03;;;;;6.30;94994.00;;;;5073898;28;20766;-63
2023/12/22 11:31:48;;;;;;;0.90;0.90;;;;;6.20;94990.00;;;;5074426;28;20370;-64
2023/12/22 11:34:18;;;;;;;3.90;1.93;;;;;6.30;95000.00;;;;5074118;28;20195;-64
2023/12/22 11:36:48;;;;;;;0.77;0.77;;;;;6.30;94983.00;;;;5073880;28;20190;-63
2023/12/22 11:39:15;;;;;;;0.60;0.60;;;;;6.30;94975.00;;;;5073864;28;20204;-63
2023/12/22 11:41:44;;;;;;;0.70;0.70;;;;;6.30;94964.00;;;;5073792;28;20207;-64
2023/12/22 11:44:11;;;;;;;0.70;0.70;;;;;6.10;94973.00;;;;5073990;28;20196;-62
2023/12/22 11:46:40;;;;;;;0.50;0.50;;;;;6.10;94954.00;;;;5073763;28;20197;-63
2023/12/22 11:49:08;;;;;;;0.60;0.60;;;;;6.10;94969.00;;;;5073847;28;20196;-63
2023/12/22 11:51:35;;;;;;;0.60;0.60;;;;;6.10;94952.00;;;;5073548;28;20211;-63
2023/12/22 11:54:03;;;;;;;0.60;0.60;;;;;6.10;94935.00;;;;5074043;28;20196;-63
2023/12/22 11:56:31;;;;;;;0.63;0.63;;;;;6.10;94934.00;;;;5072200;28;20197;-63
2023/12/22 11:59:01;;;;;;;0.70;0.70;;;;;6.10;94920.00;;;;5073492;28;20533;-63
2023/12/22 12:01:31;;;;;;;0.63;0.63;;;;;6.20;94928.00;;;;5073900;28;20201;-63
2023/12/22 12:04:03;;;;;;;0.90;0.90;;;;;6.10;94924.00;;;;5073410;28;20191;-63
2023/12/22 12:06:36;;;;;;;0.70;0.70;;;;;6.00;94921.00;;;;5073578;28;20538;-63
2023/12/22 12:09:08;;;;;;;0.60;0.60;;;;;6.20;94897.00;;;;5073228;28;20539;-62
2023/12/22 12:12:12;;;;;;;0.60;0.60;;;;;6.40;94893.00;;;;5073253;28;20207;-62
2023/12/22 12:14:44;;;;;;;0.67;0.67;;;;;6.20;94881.00;;;;5073617;28;20183;-64
2023/12/22 12:17:12;;;;;;;0.60;0.60;;;;;6.10;94894.00;;;;5073319;28;20195;-63
2023/12/22 12:19:41;;;;;;;0.60;0.60;;;;;6.10;94888.00;;;;5071893;28;20178;-63
2023/12/22 12:22:09;;;;;;;0.70;0.70;;;;;6.20;94866.00;;;;5073256;28;20215;-63
2023/12/22 12:24:38;;;;;;;0.60;0.60;;;;;6.50;94862.00;;;;5074052;28;20218;-63
2023/12/22 12:27:06;;;;;;;0.60;0.60;;;;;6.40;94839.00;;;;5073646;28;20732;-62
2023/12/22 12:29:34;;;;;;;0.50;0.50;;;;;6.50;94846.00;;;;5073674;28;20212;-63